sensor_id;sensor_type;location;lat;lon;timestamp;P1;durP1;ratioP1;P2;durP2;ratioP2
6626;SDS011;3349;49.830;8.748;2023-02-04T00:01:14;18.58;;;4.80;;
6626;SDS011;3349;49.830;8.748;2023-02-04T00:03:42;11.80;;;4.03;;
6626;SDS011;3349;49.830;8.748;2023-02-04T00:06:09;14.90;;;3.80;;
6626;SDS011;3349;49.830;8.748;2023-02-04T00:08:36;13.50;;;3.95;;
6626;SDS011;3349;49.830;8.748;2023-02-04T00:11:02;16.38;;;3.70;;
6626;SDS011;3349;49.830;8.748;2023-02-04T00:13:30;10.85;;;3.78;;
6626;SDS011;3349;49.830;8.748;2023-02-04T00:15:56;11.02;;;3.72;;
6626;SDS011;3349;49.830;8.748;2023-02-04T00:18:23;13.90;;;3.95;;
6626;SDS011;3349;49.830;8.748;2023-02-04T00:20:51;9.82;;;3.70;;
6626;SDS011;3349;49.830;8.748;2023-02-04T00:23:18;12.63;;;3.50;;
6626;SDS011;3349;49.830;8.748;2023-02-04T00:25:44;9.77;;;3.80;;
6626;SDS011;3349;49.830;8.748;2023-02-04T00:28:11;11.07;;;3.33;;
6626;SDS011;3349;49.830;8.748;2023-02-04T00:30:38;11.02;;;3.35;;
6626;SDS011;3349;49.830;8.748;2023-02-04T00:33:05;12.38;;;3.35;;
6626;SDS011;3349;49.830;8.748;2023-02-04T00:35:31;15.50;;;3.33;;
6626;SDS011;3349;49.830;8.748;2023-02-04T00:37:59;12.50;;;3.85;;
6626;SDS011;3349;49.830;8.748;2023-02-04T00:40:26;12.57;;;3.33;;
6626;SDS011;3349;49.830;8.748;2023-02-04T00:42:52;10.73;;;3.53;;
6626;SDS011;3349;49.830;8.748;2023-02-04T00:45:19;9.63;;;3.53;;
6626;SDS011;3349;49.830;8.748;2023-02-04T00:47:46;20.92;;;6.68;;
6626;SDS011;3349;49.830;8.748;2023-02-04T00:50:13;15.52;;;4.70;;
6626;SDS011;3349;49.830;8.748;2023-02-04T00:52:40;8.93;;;3.53;;
6626;SDS011;3349;49.830;8.748;2023-02-04T00:55:08;14.05;;;4.20;;
6626;SDS011;3349;49.830;8.748;2023-02-04T00:57:36;13.98;;;3.70;;
6626;SDS011;3349;49.830;8.748;2023-02-04T01:00:03;16.77;;;4.13;;
6626;SDS011;3349;49.830;8.748;2023-02-04T01:02:30;13.45;;;4.20;;
6626;SDS011;3349;49.830;8.748;2023-02-04T01:04:57;12.73;;;3.75;;
6626;SDS011;3349;49.830;8.748;2023-02-04T01:07:24;12.85;;;3.28;;
6626;SDS011;3349;49.830;8.748;2023-02-04T01:09:51;14.80;;;3.13;;
6626;SDS011;3349;49.830;8.748;2023-02-04T01:12:19;12.88;;;4.20;;
6626;SDS011;3349;49.830;8.748;2023-02-04T01:14:46;10.18;;;3.25;;
6626;SDS011;3349;49.830;8.748;2023-02-04T01:17:13;12.65;;;3.75;;
6626;SDS011;3349;49.830;8.748;2023-02-04T01:19:40;12.15;;;3.80;;
6626;SDS011;3349;49.830;8.748;2023-02-04T01:22:06;9.88;;;3.15;;
6626;SDS011;3349;49.830;8.748;2023-02-04T01:24:33;11.38;;;4.20;;
6626;SDS011;3349;49.830;8.748;2023-02-04T01:27:00;14.40;;;3.50;;
6626;SDS011;3349;49.830;8.748;2023-02-04T01:29:28;10.85;;;4.00;;
6626;SDS011;3349;49.830;8.748;2023-02-04T01:31:54;9.73;;;3.25;;
6626;SDS011;3349;49.830;8.748;2023-02-04T01:34:21;11.45;;;3.88;;
6626;SDS011;3349;49.830;8.748;2023-02-04T01:36:49;13.18;;;3.75;;
6626;SDS011;3349;49.830;8.748;2023-02-04T01:39:16;11.68;;;3.63;;
6626;SDS011;3349;49.830;8.748;2023-02-04T01:41:43;17.70;;;3.80;;
6626;SDS011;3349;49.830;8.748;2023-02-04T01:44:10;12.30;;;3.72;;
6626;SDS011;3349;49.830;8.748;2023-02-04T01:46:38;16.58;;;4.22;;
6626;SDS011;3349;49.830;8.748;2023-02-04T01:49:05;8.70;;;3.72;;
6626;SDS011;3349;49.830;8.748;2023-02-04T01:51:32;11.00;;;3.83;;
6626;SDS011;3349;49.830;8.748;2023-02-04T01:53:59;15.65;;;3.92;;
6626;SDS011;3349;49.830;8.748;2023-02-04T01:56:26;13.73;;;4.35;;
6626;SDS011;3349;49.830;8.748;2023-02-04T01:58:55;18.38;;;4.72;;
6626;SDS011;3349;49.830;8.748;2023-02-04T02:01:33;15.35;;;4.03;;
6626;SDS011;3349;49.830;8.748;2023-02-04T02:04:02;17.65;;;4.65;;
6626;SDS011;3349;49.830;8.748;2023-02-04T02:06:30;15.00;;;4.18;;
6626;SDS011;3349;49.830;8.748;2023-02-04T02:08:57;11.32;;;4.57;;
6626;SDS011;3349;49.830;8.748;2023-02-04T02:11:25;16.88;;;4.40;;
6626;SDS011;3349;49.830;8.748;2023-02-04T02:13:52;17.50;;;3.85;;
6626;SDS011;3349;49.830;8.748;2023-02-04T02:16:19;12.15;;;4.38;;
6626;SDS011;3349;49.830;8.748;2023-02-04T02:18:46;14.65;;;4.15;;
6626;SDS011;3349;49.830;8.748;2023-02-04T02:21:15;9.93;;;4.20;;
6626;SDS011;3349;49.830;8.748;2023-02-04T02:23:50;15.18;;;3.80;;
6626;SDS011;3349;49.830;8.748;2023-02-04T02:26:19;13.23;;;4.28;;
6626;SDS011;3349;49.830;8.748;2023-02-04T02:28:46;12.27;;;4.38;;
6626;SDS011;3349;49.830;8.748;2023-02-04T02:31:14;8.50;;;3.67;;
6626;SDS011;3349;49.830;8.748;2023-02-04T02:33:43;16.83;;;4.20;;
6626;SDS011;3349;49.830;8.748;2023-02-04T02:36:10;11.27;;;3.92;;
6626;SDS011;3349;49.830;8.748;2023-02-04T02:38:38;16.27;;;4.20;;
6626;SDS011;3349;49.830;8.748;2023-02-04T02:41:07;19.17;;;4.35;;
6626;SDS011;3349;49.830;8.748;2023-02-04T02:43:34;12.77;;;3.97;;
6626;SDS011;3349;49.830;8.748;2023-02-04T02:46:02;9.85;;;3.65;;
6626;SDS011;3349;49.830;8.748;2023-02-04T02:48:29;9.32;;;3.80;;
6626;SDS011;3349;49.830;8.748;2023-02-04T02:50:56;12.27;;;3.90;;
6626;SDS011;3349;49.830;8.748;2023-02-04T02:53:23;14.30;;;3.85;;
6626;SDS011;3349;49.830;8.748;2023-02-04T02:55:50;14.60;;;3.95;;
6626;SDS011;3349;49.830;8.748;2023-02-04T02:58:21;13.73;;;4.18;;
6626;SDS011;3349;49.830;8.748;2023-02-04T03:00:49;9.65;;;4.07;;
6626;SDS011;3349;49.830;8.748;2023-02-04T03:03:18;13.10;;;3.78;;
6626;SDS011;3349;49.830;8.748;2023-02-04T03:05:49;9.93;;;3.40;;
6626;SDS011;3349;49.830;8.748;2023-02-04T03:08:19;12.90;;;4.18;;
6626;SDS011;3349;49.830;8.748;2023-02-04T03:10:46;12.00;;;4.75;;
6626;SDS011;3349;49.830;8.748;2023-02-04T03:13:14;14.80;;;4.15;;
6626;SDS011;3349;49.830;8.748;2023-02-04T03:15:43;11.93;;;4.10;;
6626;SDS011;3349;49.830;8.748;2023-02-04T03:18:12;14.32;;;4.05;;
6626;SDS011;3349;49.830;8.748;2023-02-04T03:20:41;14.25;;;4.15;;
6626;SDS011;3349;49.830;8.748;2023-02-04T03:23:08;10.23;;;3.58;;
6626;SDS011;3349;49.830;8.748;2023-02-04T03:25:34;17.73;;;4.15;;
6626;SDS011;3349;49.830;8.748;2023-02-04T03:28:02;11.82;;;3.85;;
6626;SDS011;3349;49.830;8.748;2023-02-04T03:30:29;10.52;;;3.97;;
6626;SDS011;3349;49.830;8.748;2023-02-04T03:32:57;14.43;;;3.72;;
6626;SDS011;3349;49.830;8.748;2023-02-04T03:35:24;19.73;;;4.18;;
6626;SDS011;3349;49.830;8.748;2023-02-04T03:37:51;13.80;;;3.95;;
6626;SDS011;3349;49.830;8.748;2023-02-04T03:40:17;16.80;;;4.75;;
6626;SDS011;3349;49.830;8.748;2023-02-04T03:42:44;13.88;;;3.53;;
6626;SDS011;3349;49.830;8.748;2023-02-04T03:45:11;11.77;;;3.53;;
6626;SDS011;3349;49.830;8.748;2023-02-04T03:47:38;14.65;;;3.72;;
6626;SDS011;3349;49.830;8.748;2023-02-04T03:50:07;15.98;;;3.97;;
6626;SDS011;3349;49.830;8.748;2023-02-04T03:52:35;18.83;;;4.30;;
6626;SDS011;3349;49.830;8.748;2023-02-04T03:55:02;16.95;;;4.03;;
6626;SDS011;3349;49.830;8.748;2023-02-04T03:57:29;12.90;;;3.83;;
6626;SDS011;3349;49.830;8.748;2023-02-04T03:59:55;16.00;;;4.40;;
6626;SDS011;3349;49.830;8.748;2023-02-04T04:02:22;13.70;;;3.65;;
6626;SDS011;3349;49.830;8.748;2023-02-04T04:04:49;12.88;;;3.67;;
6626;SDS011;3349;49.830;8.748;2023-02-04T04:07:17;12.93;;;4.25;;
6626;SDS011;3349;49.830;8.748;2023-02-04T04:09:44;11.15;;;3.97;;
6626;SDS011;3349;49.830;8.748;2023-02-04T04:12:10;15.27;;;3.83;;
6626;SDS011;3349;49.830;8.748;2023-02-04T04:14:37;13.68;;;4.40;;
6626;SDS011;3349;49.830;8.748;2023-02-04T04:17:03;13.07;;;3.90;;
6626;SDS011;3349;49.830;8.748;2023-02-04T04:19:31;11.35;;;3.85;;
6626;SDS011;3349;49.830;8.748;2023-02-04T04:21:57;16.05;;;4.90;;
6626;SDS011;3349;49.830;8.748;2023-02-04T04:24:25;15.05;;;4.65;;
6626;SDS011;3349;49.830;8.748;2023-02-04T04:26:52;14.40;;;4.25;;
6626;SDS011;3349;49.830;8.748;2023-02-04T04:29:19;14.45;;;3.83;;
6626;SDS011;3349;49.830;8.748;2023-02-04T04:31:45;19.42;;;4.20;;
6626;SDS011;3349;49.830;8.748;2023-02-04T04:34:12;16.60;;;4.30;;
6626;SDS011;3349;49.830;8.748;2023-02-04T04:36:39;16.25;;;3.70;;
6626;SDS011;3349;49.830;8.748;2023-02-04T04:39:06;16.75;;;4.10;;
6626;SDS011;3349;49.830;8.748;2023-02-04T04:41:34;16.90;;;4.78;;
6626;SDS011;3349;49.830;8.748;2023-02-04T04:44:00;14.30;;;3.92;;
6626;SDS011;3349;49.830;8.748;2023-02-04T04:46:27;16.63;;;4.60;;
6626;SDS011;3349;49.830;8.748;2023-02-04T04:48:54;13.40;;;3.92;;
6626;SDS011;3349;49.830;8.748;2023-02-04T04:51:20;16.02;;;4.38;;
6626;SDS011;3349;49.830;8.748;2023-02-04T04:53:47;14.13;;;3.92;;
6626;SDS011;3349;49.830;8.748;2023-02-04T04:56:14;14.48;;;4.75;;
6626;SDS011;3349;49.830;8.748;2023-02-04T04:58:46;24.13;;;4.60;;
6626;SDS011;3349;49.830;8.748;2023-02-04T05:01:13;17.85;;;4.15;;
6626;SDS011;3349;49.830;8.748;2023-02-04T05:03:39;19.35;;;4.30;;
6626;SDS011;3349;49.830;8.748;2023-02-04T05:06:06;14.05;;;4.22;;
6626;SDS011;3349;49.830;8.748;2023-02-04T05:08:33;15.30;;;3.80;;
6626;SDS011;3349;49.830;8.748;2023-02-04T05:11:00;17.75;;;3.75;;
6626;SDS011;3349;49.830;8.748;2023-02-04T05:13:27;13.35;;;4.70;;
6626;SDS011;3349;49.830;8.748;2023-02-04T05:15:55;14.40;;;4.68;;
6626;SDS011;3349;49.830;8.748;2023-02-04T05:18:22;18.23;;;4.72;;
6626;SDS011;3349;49.830;8.748;2023-02-04T05:20:49;16.83;;;4.43;;
6626;SDS011;3349;49.830;8.748;2023-02-04T05:23:16;16.17;;;4.13;;
6626;SDS011;3349;49.830;8.748;2023-02-04T05:25:43;14.82;;;4.20;;
6626;SDS011;3349;49.830;8.748;2023-02-04T05:28:10;18.88;;;4.38;;
6626;SDS011;3349;49.830;8.748;2023-02-04T05:30:36;16.00;;;4.72;;
6626;SDS011;3349;49.830;8.748;2023-02-04T05:33:04;17.88;;;4.32;;
6626;SDS011;3349;49.830;8.748;2023-02-04T05:35:31;18.17;;;4.03;;
6626;SDS011;3349;49.830;8.748;2023-02-04T05:37:58;11.05;;;3.92;;
6626;SDS011;3349;49.830;8.748;2023-02-04T05:40:25;17.65;;;4.00;;
6626;SDS011;3349;49.830;8.748;2023-02-04T05:42:52;16.40;;;4.82;;
6626;SDS011;3349;49.830;8.748;2023-02-04T05:45:19;20.55;;;4.32;;
6626;SDS011;3349;49.830;8.748;2023-02-04T05:47:45;14.90;;;4.13;;
6626;SDS011;3349;49.830;8.748;2023-02-04T05:50:14;19.23;;;4.65;;
6626;SDS011;3349;49.830;8.748;2023-02-04T05:52:41;19.27;;;4.45;;
6626;SDS011;3349;49.830;8.748;2023-02-04T05:55:09;16.17;;;4.35;;
6626;SDS011;3349;49.830;8.748;2023-02-04T05:57:37;21.73;;;4.53;;
6626;SDS011;3349;49.830;8.748;2023-02-04T06:00:04;14.40;;;4.15;;
6626;SDS011;3349;49.830;8.748;2023-02-04T06:02:32;15.65;;;4.80;;
6626;SDS011;3349;49.830;8.748;2023-02-04T06:04:58;14.07;;;4.40;;
6626;SDS011;3349;49.830;8.748;2023-02-04T06:07:26;16.15;;;4.22;;
6626;SDS011;3349;49.830;8.748;2023-02-04T06:09:53;16.88;;;5.57;;
6626;SDS011;3349;49.830;8.748;2023-02-04T06:12:20;15.10;;;5.22;;
6626;SDS011;3349;49.830;8.748;2023-02-04T06:14:46;15.82;;;4.90;;
6626;SDS011;3349;49.830;8.748;2023-02-04T06:17:13;21.55;;;5.50;;
6626;SDS011;3349;49.830;8.748;2023-02-04T06:19:40;17.25;;;5.13;;
6626;SDS011;3349;49.830;8.748;2023-02-04T06:22:06;16.70;;;5.63;;
6626;SDS011;3349;49.830;8.748;2023-02-04T06:24:34;19.17;;;5.70;;
6626;SDS011;3349;49.830;8.748;2023-02-04T06:27:01;22.30;;;5.60;;
6626;SDS011;3349;49.830;8.748;2023-02-04T06:29:28;18.17;;;5.03;;
6626;SDS011;3349;49.830;8.748;2023-02-04T06:31:54;21.20;;;4.82;;
6626;SDS011;3349;49.830;8.748;2023-02-04T06:34:21;19.63;;;5.82;;
6626;SDS011;3349;49.830;8.748;2023-02-04T06:36:48;18.48;;;5.47;;
6626;SDS011;3349;49.830;8.748;2023-02-04T06:39:14;16.98;;;6.60;;
6626;SDS011;3349;49.830;8.748;2023-02-04T06:41:43;16.70;;;5.25;;
6626;SDS011;3349;49.830;8.748;2023-02-04T06:44:09;20.58;;;5.55;;
6626;SDS011;3349;49.830;8.748;2023-02-04T06:46:36;21.23;;;5.65;;
6626;SDS011;3349;49.830;8.748;2023-02-04T06:49:02;23.60;;;5.82;;
6626;SDS011;3349;49.830;8.748;2023-02-04T06:51:29;12.35;;;5.38;;
6626;SDS011;3349;49.830;8.748;2023-02-04T06:53:56;13.88;;;5.10;;
6626;SDS011;3349;49.830;8.748;2023-02-04T06:56:23;21.80;;;5.88;;
6626;SDS011;3349;49.830;8.748;2023-02-04T06:58:52;21.30;;;5.07;;
6626;SDS011;3349;49.830;8.748;2023-02-04T07:01:19;21.42;;;4.60;;
6626;SDS011;3349;49.830;8.748;2023-02-04T07:03:45;27.60;;;5.38;;
6626;SDS011;3349;49.830;8.748;2023-02-04T07:06:12;15.75;;;4.90;;
6626;SDS011;3349;49.830;8.748;2023-02-04T07:08:39;14.73;;;4.65;;
6626;SDS011;3349;49.830;8.748;2023-02-04T07:11:06;21.80;;;5.65;;
6626;SDS011;3349;49.830;8.748;2023-02-04T07:13:33;19.50;;;5.25;;
6626;SDS011;3349;49.830;8.748;2023-02-04T07:16:01;22.50;;;5.15;;
6626;SDS011;3349;49.830;8.748;2023-02-04T07:18:27;24.10;;;6.00;;
6626;SDS011;3349;49.830;8.748;2023-02-04T07:20:54;20.58;;;5.18;;
6626;SDS011;3349;49.830;8.748;2023-02-04T07:23:21;25.70;;;6.47;;
6626;SDS011;3349;49.830;8.748;2023-02-04T07:25:48;18.95;;;5.07;;
6626;SDS011;3349;49.830;8.748;2023-02-04T07:28:17;29.73;;;5.68;;
6626;SDS011;3349;49.830;8.748;2023-02-04T07:30:44;27.15;;;7.15;;
6626;SDS011;3349;49.830;8.748;2023-02-04T07:33:12;15.68;;;5.47;;
6626;SDS011;3349;49.830;8.748;2023-02-04T07:35:39;32.72;;;5.95;;
6626;SDS011;3349;49.830;8.748;2023-02-04T07:38:06;25.15;;;5.68;;
6626;SDS011;3349;49.830;8.748;2023-02-04T07:40:32;21.90;;;4.63;;
6626;SDS011;3349;49.830;8.748;2023-02-04T07:42:59;19.55;;;5.47;;
6626;SDS011;3349;49.830;8.748;2023-02-04T07:45:26;23.08;;;5.35;;
6626;SDS011;3349;49.830;8.748;2023-02-04T07:47:52;22.55;;;4.95;;
6626;SDS011;3349;49.830;8.748;2023-02-04T07:50:20;22.40;;;5.38;;
6626;SDS011;3349;49.830;8.748;2023-02-04T07:52:47;29.08;;;6.05;;
6626;SDS011;3349;49.830;8.748;2023-02-04T07:55:14;21.58;;;5.85;;
6626;SDS011;3349;49.830;8.748;2023-02-04T07:57:40;24.10;;;5.60;;
6626;SDS011;3349;49.830;8.748;2023-02-04T08:00:08;25.55;;;6.32;;
6626;SDS011;3349;49.830;8.748;2023-02-04T08:02:38;34.47;;;14.13;;
6626;SDS011;3349;49.830;8.748;2023-02-04T08:05:05;27.88;;;10.38;;
6626;SDS011;3349;49.830;8.748;2023-02-04T08:07:33;44.92;;;17.80;;
6626;SDS011;3349;49.830;8.748;2023-02-04T08:10:01;33.15;;;10.95;;
6626;SDS011;3349;49.830;8.748;2023-02-04T08:12:27;38.28;;;12.07;;
6626;SDS011;3349;49.830;8.748;2023-02-04T08:14:54;44.10;;;11.57;;
6626;SDS011;3349;49.830;8.748;2023-02-04T08:17:21;40.50;;;12.05;;
6626;SDS011;3349;49.830;8.748;2023-02-04T08:19:47;30.92;;;10.50;;
6626;SDS011;3349;49.830;8.748;2023-02-04T08:22:14;30.15;;;11.93;;
6626;SDS011;3349;49.830;8.748;2023-02-04T08:24:42;32.88;;;11.45;;
6626;SDS011;3349;49.830;8.748;2023-02-04T08:27:09;34.60;;;10.15;;
6626;SDS011;3349;49.830;8.748;2023-02-04T08:29:36;27.05;;;7.13;;
6626;SDS011;3349;49.830;8.748;2023-02-04T08:32:03;24.80;;;7.00;;
6626;SDS011;3349;49.830;8.748;2023-02-04T08:34:30;20.98;;;5.95;;
6626;SDS011;3349;49.830;8.748;2023-02-04T08:36:57;23.73;;;7.40;;
6626;SDS011;3349;49.830;8.748;2023-02-04T08:39:24;23.30;;;7.00;;
6626;SDS011;3349;49.830;8.748;2023-02-04T08:41:52;21.75;;;5.57;;
6626;SDS011;3349;49.830;8.748;2023-02-04T08:44:18;18.30;;;5.05;;
6626;SDS011;3349;49.830;8.748;2023-02-04T08:46:45;21.27;;;6.40;;
6626;SDS011;3349;49.830;8.748;2023-02-04T08:49:12;20.05;;;4.65;;
6626;SDS011;3349;49.830;8.748;2023-02-04T08:51:39;15.82;;;4.82;;
6626;SDS011;3349;49.830;8.748;2023-02-04T08:54:06;23.92;;;4.57;;
6626;SDS011;3349;49.830;8.748;2023-02-04T08:56:32;14.02;;;4.10;;
6626;SDS011;3349;49.830;8.748;2023-02-04T08:59:00;19.20;;;4.75;;
6626;SDS011;3349;49.830;8.748;2023-02-04T09:01:27;21.48;;;4.53;;
6626;SDS011;3349;49.830;8.748;2023-02-04T09:03:54;17.00;;;4.57;;
6626;SDS011;3349;49.830;8.748;2023-02-04T09:06:21;18.50;;;7.97;;
6626;SDS011;3349;49.830;8.748;2023-02-04T09:08:47;22.33;;;6.32;;
6626;SDS011;3349;49.830;8.748;2023-02-04T09:11:14;25.60;;;10.35;;
6626;SDS011;3349;49.830;8.748;2023-02-04T09:13:41;18.40;;;7.88;;
6626;SDS011;3349;49.830;8.748;2023-02-04T09:16:09;20.15;;;7.57;;
6626;SDS011;3349;49.830;8.748;2023-02-04T09:18:36;17.35;;;6.72;;
6626;SDS011;3349;49.830;8.748;2023-02-04T09:21:02;21.13;;;6.97;;
6626;SDS011;3349;49.830;8.748;2023-02-04T09:23:29;29.23;;;13.30;;
6626;SDS011;3349;49.830;8.748;2023-02-04T09:25:56;19.05;;;7.45;;
6626;SDS011;3349;49.830;8.748;2023-02-04T09:28:23;18.88;;;6.38;;
6626;SDS011;3349;49.830;8.748;2023-02-04T09:30:49;13.60;;;5.13;;
6626;SDS011;3349;49.830;8.748;2023-02-04T09:33:17;14.55;;;4.00;;
6626;SDS011;3349;49.830;8.748;2023-02-04T09:35:44;15.13;;;3.65;;
6626;SDS011;3349;49.830;8.748;2023-02-04T09:38:11;17.35;;;5.40;;
6626;SDS011;3349;49.830;8.748;2023-02-04T09:40:40;16.23;;;4.47;;
6626;SDS011;3349;49.830;8.748;2023-02-04T09:43:08;16.75;;;4.88;;
6626;SDS011;3349;49.830;8.748;2023-02-04T09:45:42;13.82;;;4.00;;
6626;SDS011;3349;49.830;8.748;2023-02-04T09:48:08;15.25;;;3.78;;
6626;SDS011;3349;49.830;8.748;2023-02-04T09:50:39;13.73;;;4.00;;
6626;SDS011;3349;49.830;8.748;2023-02-04T09:53:09;14.80;;;3.80;;
6626;SDS011;3349;49.830;8.748;2023-02-04T09:55:39;19.10;;;4.97;;
6626;SDS011;3349;49.830;8.748;2023-02-04T09:58:10;35.63;;;19.92;;
6626;SDS011;3349;49.830;8.748;2023-02-04T10:00:40;22.70;;;10.23;;
6626;SDS011;3349;49.830;8.748;2023-02-04T10:03:09;18.35;;;6.07;;
6626;SDS011;3349;49.830;8.748;2023-02-04T10:05:42;21.08;;;5.00;;
6626;SDS011;3349;49.830;8.748;2023-02-04T10:08:09;16.38;;;4.53;;
6626;SDS011;3349;49.830;8.748;2023-02-04T10:10:39;13.10;;;4.22;;
6626;SDS011;3349;49.830;8.748;2023-02-04T10:13:07;16.63;;;5.35;;
6626;SDS011;3349;49.830;8.748;2023-02-04T10:15:39;14.90;;;5.05;;
6626;SDS011;3349;49.830;8.748;2023-02-04T10:18:06;19.83;;;7.28;;
6626;SDS011;3349;49.830;8.748;2023-02-04T10:20:33;20.60;;;6.68;;
6626;SDS011;3349;49.830;8.748;2023-02-04T10:23:01;32.05;;;14.95;;
6626;SDS011;3349;49.830;8.748;2023-02-04T10:25:28;10.35;;;4.15;;
6626;SDS011;3349;49.830;8.748;2023-02-04T10:27:56;36.03;;;13.40;;
6626;SDS011;3349;49.830;8.748;2023-02-04T10:30:24;20.73;;;5.22;;
6626;SDS011;3349;49.830;8.748;2023-02-04T10:32:54;23.52;;;6.28;;
6626;SDS011;3349;49.830;8.748;2023-02-04T10:35:20;17.35;;;5.75;;
6626;SDS011;3349;49.830;8.748;2023-02-04T10:38:00;15.05;;;4.57;;
6626;SDS011;3349;49.830;8.748;2023-02-04T10:40:30;15.55;;;4.43;;
6626;SDS011;3349;49.830;8.748;2023-02-04T10:42:57;14.07;;;3.92;;
6626;SDS011;3349;49.830;8.748;2023-02-04T10:45:25;9.27;;;3.50;;
6626;SDS011;3349;49.830;8.748;2023-02-04T10:47:54;16.17;;;3.97;;
6626;SDS011;3349;49.830;8.748;2023-02-04T10:50:22;15.82;;;4.25;;
6626;SDS011;3349;49.830;8.748;2023-02-04T10:52:50;13.15;;;4.38;;
6626;SDS011;3349;49.830;8.748;2023-02-04T10:55:21;10.20;;;3.30;;
6626;SDS011;3349;49.830;8.748;2023-02-04T10:57:50;13.52;;;3.97;;
6626;SDS011;3349;49.830;8.748;2023-02-04T11:00:18;10.15;;;3.13;;
6626;SDS011;3349;49.830;8.748;2023-02-04T11:02:48;14.57;;;3.45;;
6626;SDS011;3349;49.830;8.748;2023-02-04T11:05:19;11.38;;;3.42;;
6626;SDS011;3349;49.830;8.748;2023-02-04T11:07:47;12.75;;;3.75;;
6626;SDS011;3349;49.830;8.748;2023-02-04T11:10:15;9.60;;;3.55;;
6626;SDS011;3349;49.830;8.748;2023-02-04T11:12:45;11.50;;;3.63;;
6626;SDS011;3349;49.830;8.748;2023-02-04T11:15:37;10.68;;;4.20;;
6626;SDS011;3349;49.830;8.748;2023-02-04T11:18:07;16.23;;;5.63;;
6626;SDS011;3349;49.830;8.748;2023-02-04T11:20:35;12.00;;;4.20;;
6626;SDS011;3349;49.830;8.748;2023-02-04T11:23:27;11.45;;;3.78;;
6626;SDS011;3349;49.830;8.748;2023-02-04T11:26:03;12.18;;;3.45;;
6626;SDS011;3349;49.830;8.748;2023-02-04T11:31:43;9.15;;;3.20;;
6626;SDS011;3349;49.830;8.748;2023-02-04T11:34:26;12.27;;;4.30;;
6626;SDS011;3349;49.830;8.748;2023-02-04T11:36:56;14.45;;;4.95;;
6626;SDS011;3349;49.830;8.748;2023-02-04T11:39:44;18.17;;;4.32;;
6626;SDS011;3349;49.830;8.748;2023-02-04T11:42:16;13.68;;;5.15;;
6626;SDS011;3349;49.830;8.748;2023-02-04T11:44:50;11.23;;;3.78;;
6626;SDS011;3349;49.830;8.748;2023-02-04T11:47:18;14.30;;;4.40;;
6626;SDS011;3349;49.830;8.748;2023-02-04T11:49:45;11.77;;;3.60;;
6626;SDS011;3349;49.830;8.748;2023-02-04T11:52:19;15.13;;;5.45;;
6626;SDS011;3349;49.830;8.748;2023-02-04T11:54:51;14.13;;;4.50;;
6626;SDS011;3349;49.830;8.748;2023-02-04T11:57:19;14.60;;;4.25;;
6626;SDS011;3349;49.830;8.748;2023-02-04T11:59:46;11.95;;;3.42;;
6626;SDS011;3349;49.830;8.748;2023-02-04T12:02:15;13.77;;;3.38;;
6626;SDS011;3349;49.830;8.748;2023-02-04T12:04:49;9.40;;;3.03;;
6626;SDS011;3349;49.830;8.748;2023-02-04T12:07:20;15.32;;;3.70;;
6626;SDS011;3349;49.830;8.748;2023-02-04T12:09:48;11.73;;;3.22;;
6626;SDS011;3349;49.830;8.748;2023-02-04T12:12:21;9.10;;;2.92;;
6626;SDS011;3349;49.830;8.748;2023-02-04T12:14:55;11.02;;;2.78;;
6626;SDS011;3349;49.830;8.748;2023-02-04T12:17:23;8.93;;;2.83;;
6626;SDS011;3349;49.830;8.748;2023-02-04T12:19:50;11.45;;;3.00;;
6626;SDS011;3349;49.830;8.748;2023-02-04T12:22:17;9.45;;;3.03;;
6626;SDS011;3349;49.830;8.748;2023-02-04T12:24:44;9.57;;;2.97;;
6626;SDS011;3349;49.830;8.748;2023-02-04T12:27:10;12.00;;;3.75;;
6626;SDS011;3349;49.830;8.748;2023-02-04T12:29:37;12.23;;;3.67;;
6626;SDS011;3349;49.830;8.748;2023-02-04T12:32:04;9.30;;;3.85;;
6626;SDS011;3349;49.830;8.748;2023-02-04T12:34:31;10.20;;;3.42;;
6626;SDS011;3349;49.830;8.748;2023-02-04T12:36:58;10.48;;;3.38;;
6626;SDS011;3349;49.830;8.748;2023-02-04T12:39:25;14.73;;;4.53;;
6626;SDS011;3349;49.830;8.748;2023-02-04T12:41:52;11.23;;;3.58;;
6626;SDS011;3349;49.830;8.748;2023-02-04T12:44:19;10.57;;;3.75;;
6626;SDS011;3349;49.830;8.748;2023-02-04T12:46:46;10.00;;;3.72;;
6626;SDS011;3349;49.830;8.748;2023-02-04T12:49:12;8.20;;;3.20;;
6626;SDS011;3349;49.830;8.748;2023-02-04T12:51:40;8.32;;;3.40;;
6626;SDS011;3349;49.830;8.748;2023-02-04T12:54:07;8.55;;;3.58;;
6626;SDS011;3349;49.830;8.748;2023-02-04T12:56:34;12.25;;;5.15;;
6626;SDS011;3349;49.830;8.748;2023-02-04T12:59:00;11.60;;;4.45;;
6626;SDS011;3349;49.830;8.748;2023-02-04T13:01:27;9.25;;;4.18;;
6626;SDS011;3349;49.830;8.748;2023-02-04T13:03:54;13.20;;;3.58;;
6626;SDS011;3349;49.830;8.748;2023-02-04T13:06:22;8.68;;;3.40;;
6626;SDS011;3349;49.830;8.748;2023-02-04T13:08:50;13.70;;;4.32;;
6626;SDS011;3349;49.830;8.748;2023-02-04T13:11:16;11.93;;;4.90;;
6626;SDS011;3349;49.830;8.748;2023-02-04T13:13:43;11.02;;;4.40;;
6626;SDS011;3349;49.830;8.748;2023-02-04T13:16:09;8.93;;;3.10;;
6626;SDS011;3349;49.830;8.748;2023-02-04T13:18:36;12.25;;;4.22;;
6626;SDS011;3349;49.830;8.748;2023-02-04T13:21:03;14.02;;;6.07;;
6626;SDS011;3349;49.830;8.748;2023-02-04T13:23:30;9.75;;;3.35;;
6626;SDS011;3349;49.830;8.748;2023-02-04T13:25:58;12.30;;;4.47;;
6626;SDS011;3349;49.830;8.748;2023-02-04T13:28:25;14.98;;;4.68;;
6626;SDS011;3349;49.830;8.748;2023-02-04T13:30:51;11.52;;;3.70;;
6626;SDS011;3349;49.830;8.748;2023-02-04T13:33:18;15.35;;;4.70;;
6626;SDS011;3349;49.830;8.748;2023-02-04T13:35:44;11.73;;;3.53;;
6626;SDS011;3349;49.830;8.748;2023-02-04T13:38:12;14.68;;;5.10;;
6626;SDS011;3349;49.830;8.748;2023-02-04T13:40:38;12.30;;;3.45;;
6626;SDS011;3349;49.830;8.748;2023-02-04T13:43:07;16.75;;;3.72;;
6626;SDS011;3349;49.830;8.748;2023-02-04T13:45:34;16.75;;;4.10;;
6626;SDS011;3349;49.830;8.748;2023-02-04T13:48:01;16.08;;;3.55;;
6626;SDS011;3349;49.830;8.748;2023-02-04T13:50:28;12.80;;;3.85;;
6626;SDS011;3349;49.830;8.748;2023-02-04T13:52:55;15.00;;;3.80;;
6626;SDS011;3349;49.830;8.748;2023-02-04T13:55:22;14.55;;;3.53;;
6626;SDS011;3349;49.830;8.748;2023-02-04T13:57:48;13.32;;;4.00;;
6626;SDS011;3349;49.830;8.748;2023-02-04T14:00:17;13.85;;;4.10;;
6626;SDS011;3349;49.830;8.748;2023-02-04T14:02:44;13.05;;;3.97;;
6626;SDS011;3349;49.830;8.748;2023-02-04T14:05:12;12.60;;;4.15;;
6626;SDS011;3349;49.830;8.748;2023-02-04T14:07:39;12.73;;;4.25;;
6626;SDS011;3349;49.830;8.748;2023-02-04T14:10:06;15.15;;;4.45;;
6626;SDS011;3349;49.830;8.748;2023-02-04T14:12:34;13.50;;;4.65;;
6626;SDS011;3349;49.830;8.748;2023-02-04T14:15:00;11.07;;;4.05;;
6626;SDS011;3349;49.830;8.748;2023-02-04T14:17:28;11.65;;;4.53;;
6626;SDS011;3349;49.830;8.748;2023-02-04T14:19:55;18.38;;;6.95;;
6626;SDS011;3349;49.830;8.748;2023-02-04T14:22:22;15.65;;;7.10;;
6626;SDS011;3349;49.830;8.748;2023-02-04T14:24:48;14.38;;;4.38;;
6626;SDS011;3349;49.830;8.748;2023-02-04T14:27:15;14.55;;;4.90;;
6626;SDS011;3349;49.830;8.748;2023-02-04T14:29:42;14.52;;;4.38;;
6626;SDS011;3349;49.830;8.748;2023-02-04T14:32:09;14.23;;;4.75;;
6626;SDS011;3349;49.830;8.748;2023-02-04T14:34:37;14.68;;;4.28;;
6626;SDS011;3349;49.830;8.748;2023-02-04T14:37:03;10.20;;;3.03;;
6626;SDS011;3349;49.830;8.748;2023-02-04T14:39:30;11.40;;;3.42;;
6626;SDS011;3349;49.830;8.748;2023-02-04T14:41:57;10.75;;;3.03;;
6626;SDS011;3349;49.830;8.748;2023-02-04T14:44:24;13.25;;;3.75;;
6626;SDS011;3349;49.830;8.748;2023-02-04T14:46:51;14.38;;;3.33;;
6626;SDS011;3349;49.830;8.748;2023-02-04T14:49:18;11.60;;;3.58;;
6626;SDS011;3349;49.830;8.748;2023-02-04T14:51:45;15.35;;;3.88;;
6626;SDS011;3349;49.830;8.748;2023-02-04T14:54:12;12.70;;;3.92;;
6626;SDS011;3349;49.830;8.748;2023-02-04T14:56:40;11.07;;;3.47;;
6626;SDS011;3349;49.830;8.748;2023-02-04T14:59:08;8.45;;;2.95;;
6626;SDS011;3349;49.830;8.748;2023-02-04T15:01:35;10.60;;;3.58;;
6626;SDS011;3349;49.830;8.748;2023-02-04T15:04:02;13.63;;;3.63;;
6626;SDS011;3349;49.830;8.748;2023-02-04T15:06:28;13.23;;;3.90;;
6626;SDS011;3349;49.830;8.748;2023-02-04T15:08:56;8.75;;;3.00;;